sensor_id;sensor_type;location;lat;lon;timestamp;P1;durP1;ratioP1;P2;durP2;ratioP2
14268;SDS011;7218;51.480;7.006;2023-09-08T00:00:52;11.25;;;7.88;;
14268;SDS011;7218;51.480;7.006;2023-09-08T00:03:18;8.95;;;7.60;;
14268;SDS011;7218;51.480;7.006;2023-09-08T00:05:46;8.75;;;7.47;;
14268;SDS011;7218;51.480;7.006;2023-09-08T00:08:13;10.35;;;8.20;;
14268;SDS011;7218;51.480;7.006;2023-09-08T00:10:40;10.38;;;7.72;;
14268;SDS011;7218;51.480;7.006;2023-09-08T00:13:06;8.95;;;6.60;;
14268;SDS011;7218;51.480;7.006;2023-09-08T00:15:34;8.85;;;7.13;;
14268;SDS011;7218;51.480;7.006;2023-09-08T00:18:01;8.20;;;6.95;;
14268;SDS011;7218;51.480;7.006;2023-09-08T00:20:27;8.65;;;7.40;;
14268;SDS011;7218;51.480;7.006;2023-09-08T00:22:54;7.43;;;6.70;;
14268;SDS011;7218;51.480;7.006;2023-09-08T00:25:21;8.73;;;6.60;;
14268;SDS011;7218;51.480;7.006;2023-09-08T00:27:47;8.82;;;7.03;;
14268;SDS011;7218;51.480;7.006;2023-09-08T00:30:13;8.38;;;6.68;;
14268;SDS011;7218;51.480;7.006;2023-09-08T00:32:41;7.80;;;6.40;;
14268;SDS011;7218;51.480;7.006;2023-09-08T00:35:10;9.10;;;6.55;;
14268;SDS011;7218;51.480;7.006;2023-09-08T00:37:39;7.75;;;6.13;;
14268;SDS011;7218;51.480;7.006;2023-09-08T00:40:06;7.53;;;6.38;;
14268;SDS011;7218;51.480;7.006;2023-09-08T00:42:34;10.02;;;6.20;;
14268;SDS011;7218;51.480;7.006;2023-09-08T00:45:00;7.88;;;6.18;;
14268;SDS011;7218;51.480;7.006;2023-09-08T00:47:26;8.00;;;6.50;;
14268;SDS011;7218;51.480;7.006;2023-09-08T00:49:55;9.32;;;6.63;;
14268;SDS011;7218;51.480;7.006;2023-09-08T00:52:21;8.77;;;6.35;;
14268;SDS011;7218;51.480;7.006;2023-09-08T00:54:48;7.88;;;6.57;;
14268;SDS011;7218;51.480;7.006;2023-09-08T00:57:14;9.25;;;6.53;;
14268;SDS011;7218;51.480;7.006;2023-09-08T00:59:41;8.15;;;6.65;;
14268;SDS011;7218;51.480;7.006;2023-09-08T01:02:09;6.63;;;5.90;;
14268;SDS011;7218;51.480;7.006;2023-09-08T01:04:35;11.00;;;6.63;;
14268;SDS011;7218;51.480;7.006;2023-09-08T01:07:07;8.52;;;6.45;;
14268;SDS011;7218;51.480;7.006;2023-09-08T01:09:34;7.50;;;6.05;;
14268;SDS011;7218;51.480;7.006;2023-09-08T01:12:02;6.47;;;5.60;;
14268;SDS011;7218;51.480;7.006;2023-09-08T01:14:29;10.43;;;6.25;;
14268;SDS011;7218;51.480;7.006;2023-09-08T01:16:55;6.50;;;5.80;;
14268;SDS011;7218;51.480;7.006;2023-09-08T01:19:22;9.00;;;6.47;;
14268;SDS011;7218;51.480;7.006;2023-09-08T01:21:53;8.60;;;6.35;;
14268;SDS011;7218;51.480;7.006;2023-09-08T01:24:38;10.10;;;6.70;;
14268;SDS011;7218;51.480;7.006;2023-09-08T01:27:25;7.32;;;6.30;;
14268;SDS011;7218;51.480;7.006;2023-09-08T01:29:54;7.47;;;5.78;;
14268;SDS011;7218;51.480;7.006;2023-09-08T01:32:22;7.78;;;5.85;;
14268;SDS011;7218;51.480;7.006;2023-09-08T01:34:48;7.60;;;5.75;;
14268;SDS011;7218;51.480;7.006;2023-09-08T01:37:15;10.18;;;6.55;;
14268;SDS011;7218;51.480;7.006;2023-09-08T01:39:41;8.00;;;6.00;;
14268;SDS011;7218;51.480;7.006;2023-09-08T01:42:09;7.90;;;5.90;;
14268;SDS011;7218;51.480;7.006;2023-09-08T01:44:36;8.10;;;5.72;;
14268;SDS011;7218;51.480;7.006;2023-09-08T01:47:02;7.20;;;6.03;;
14268;SDS011;7218;51.480;7.006;2023-09-08T01:49:29;7.22;;;5.85;;
14268;SDS011;7218;51.480;7.006;2023-09-08T01:51:55;7.20;;;5.97;;
14268;SDS011;7218;51.480;7.006;2023-09-08T01:54:22;7.60;;;6.30;;
14268;SDS011;7218;51.480;7.006;2023-09-08T01:56:48;8.30;;;5.90;;
14268;SDS011;7218;51.480;7.006;2023-09-08T01:59:17;9.35;;;6.15;;
14268;SDS011;7218;51.480;7.006;2023-09-08T02:01:44;6.65;;;6.03;;
14268;SDS011;7218;51.480;7.006;2023-09-08T02:04:10;8.10;;;6.20;;
14268;SDS011;7218;51.480;7.006;2023-09-08T02:06:37;9.23;;;6.40;;
14268;SDS011;7218;51.480;7.006;2023-09-08T02:09:03;7.53;;;6.20;;
14268;SDS011;7218;51.480;7.006;2023-09-08T02:11:30;11.02;;;6.40;;
14268;SDS011;7218;51.480;7.006;2023-09-08T02:13:56;7.50;;;6.57;;
14268;SDS011;7218;51.480;7.006;2023-09-08T02:16:24;7.50;;;5.78;;
14268;SDS011;7218;51.480;7.006;2023-09-08T02:18:50;8.35;;;6.00;;
14268;SDS011;7218;51.480;7.006;2023-09-08T02:21:17;9.05;;;6.35;;
14268;SDS011;7218;51.480;7.006;2023-09-08T02:23:43;8.80;;;6.63;;
14268;SDS011;7218;51.480;7.006;2023-09-08T02:26:10;7.82;;;6.32;;
14268;SDS011;7218;51.480;7.006;2023-09-08T02:28:36;7.65;;;6.53;;
14268;SDS011;7218;51.480;7.006;2023-09-08T02:31:03;7.47;;;6.68;;
14268;SDS011;7218;51.480;7.006;2023-09-08T02:33:31;7.95;;;6.50;;
14268;SDS011;7218;51.480;7.006;2023-09-08T02:36:00;8.00;;;6.63;;
14268;SDS011;7218;51.480;7.006;2023-09-08T02:38:28;8.82;;;6.78;;
14268;SDS011;7218;51.480;7.006;2023-09-08T02:40:54;7.90;;;6.53;;
14268;SDS011;7218;51.480;7.006;2023-09-08T02:43:21;7.95;;;6.05;;
14268;SDS011;7218;51.480;7.006;2023-09-08T02:45:47;11.52;;;6.13;;
14268;SDS011;7218;51.480;7.006;2023-09-08T02:48:14;9.30;;;6.15;;
14268;SDS011;7218;51.480;7.006;2023-09-08T02:50:44;8.30;;;6.25;;
14268;SDS011;7218;51.480;7.006;2023-09-08T02:53:10;7.15;;;5.93;;
14268;SDS011;7218;51.480;7.006;2023-09-08T02:55:37;6.82;;;6.00;;
14268;SDS011;7218;51.480;7.006;2023-09-08T02:58:03;6.82;;;6.22;;
14268;SDS011;7218;51.480;7.006;2023-09-08T03:00:30;8.50;;;5.93;;
14268;SDS011;7218;51.480;7.006;2023-09-08T03:02:56;8.52;;;5.78;;
14268;SDS011;7218;51.480;7.006;2023-09-08T03:05:23;8.68;;;6.30;;
14268;SDS011;7218;51.480;7.006;2023-09-08T03:07:51;8.77;;;6.13;;
14268;SDS011;7218;51.480;7.006;2023-09-08T03:10:17;7.63;;;6.35;;
14268;SDS011;7218;51.480;7.006;2023-09-08T03:12:44;7.45;;;6.25;;
14268;SDS011;7218;51.480;7.006;2023-09-08T03:15:10;7.07;;;6.10;;
14268;SDS011;7218;51.480;7.006;2023-09-08T03:17:37;6.93;;;5.90;;
14268;SDS011;7218;51.480;7.006;2023-09-08T03:20:04;6.90;;;5.82;;
14268;SDS011;7218;51.480;7.006;2023-09-08T03:22:33;8.65;;;6.15;;
14268;SDS011;7218;51.480;7.006;2023-09-08T03:25:01;8.07;;;6.13;;
14268;SDS011;7218;51.480;7.006;2023-09-08T03:27:28;7.07;;;6.15;;
14268;SDS011;7218;51.480;7.006;2023-09-08T03:29:54;6.97;;;6.28;;
14268;SDS011;7218;51.480;7.006;2023-09-08T03:32:21;7.53;;;6.20;;
14268;SDS011;7218;51.480;7.006;2023-09-08T03:34:47;8.05;;;5.55;;
14268;SDS011;7218;51.480;7.006;2023-09-08T03:37:15;10.80;;;6.03;;
14268;SDS011;7218;51.480;7.006;2023-09-08T03:39:42;7.05;;;6.35;;
14268;SDS011;7218;51.480;7.006;2023-09-08T03:42:09;7.43;;;6.30;;
14268;SDS011;7218;51.480;7.006;2023-09-08T03:44:36;10.20;;;6.38;;
14268;SDS011;7218;51.480;7.006;2023-09-08T03:47:02;7.30;;;6.20;;
14268;SDS011;7218;51.480;7.006;2023-09-08T03:49:30;11.55;;;5.93;;
14268;SDS011;7218;51.480;7.006;2023-09-08T03:51:56;7.38;;;5.78;;
14268;SDS011;7218;51.480;7.006;2023-09-08T03:54:23;8.35;;;5.95;;
14268;SDS011;7218;51.480;7.006;2023-09-08T03:56:50;9.07;;;6.13;;
14268;SDS011;7218;51.480;7.006;2023-09-08T03:59:17;6.47;;;5.75;;
14268;SDS011;7218;51.480;7.006;2023-09-08T04:01:44;7.28;;;5.82;;
14268;SDS011;7218;51.480;7.006;2023-09-08T04:04:11;7.30;;;5.80;;
14268;SDS011;7218;51.480;7.006;2023-09-08T04:06:37;6.45;;;5.70;;
14268;SDS011;7218;51.480;7.006;2023-09-08T04:09:04;8.07;;;6.18;;
14268;SDS011;7218;51.480;7.006;2023-09-08T04:11:30;8.50;;;6.10;;
14268;SDS011;7218;51.480;7.006;2023-09-08T04:13:57;9.70;;;6.20;;
14268;SDS011;7218;51.480;7.006;2023-09-08T04:16:25;7.40;;;6.60;;
14268;SDS011;7218;51.480;7.006;2023-09-08T04:18:52;8.95;;;6.07;;
14268;SDS011;7218;51.480;7.006;2023-09-08T04:21:18;7.00;;;6.13;;
14268;SDS011;7218;51.480;7.006;2023-09-08T04:23:45;7.20;;;6.10;;
14268;SDS011;7218;51.480;7.006;2023-09-08T04:26:11;7.97;;;5.95;;
14268;SDS011;7218;51.480;7.006;2023-09-08T04:28:38;8.18;;;5.95;;
14268;SDS011;7218;51.480;7.006;2023-09-08T04:31:05;8.80;;;6.35;;
14268;SDS011;7218;51.480;7.006;2023-09-08T04:33:32;6.93;;;6.22;;
14268;SDS011;7218;51.480;7.006;2023-09-08T04:35:59;6.65;;;5.53;;
14268;SDS011;7218;51.480;7.006;2023-09-08T04:38:25;8.18;;;6.57;;
14268;SDS011;7218;51.480;7.006;2023-09-08T04:40:52;7.78;;;6.10;;
14268;SDS011;7218;51.480;7.006;2023-09-08T04:43:18;9.90;;;6.40;;
14268;SDS011;7218;51.480;7.006;2023-09-08T04:45:45;11.18;;;6.97;;
14268;SDS011;7218;51.480;7.006;2023-09-08T04:48:11;7.65;;;6.43;;
14268;SDS011;7218;51.480;7.006;2023-09-08T04:50:39;8.15;;;5.97;;
14268;SDS011;7218;51.480;7.006;2023-09-08T04:53:05;10.05;;;6.40;;
14268;SDS011;7218;51.480;7.006;2023-09-08T04:55:32;8.23;;;6.45;;
14268;SDS011;7218;51.480;7.006;2023-09-08T04:57:59;9.50;;;5.93;;
14268;SDS011;7218;51.480;7.006;2023-09-08T05:00:25;8.23;;;6.15;;
14268;SDS011;7218;51.480;7.006;2023-09-08T05:02:52;6.78;;;6.07;;
14268;SDS011;7218;51.480;7.006;2023-09-08T05:05:18;6.93;;;6.22;;
14268;SDS011;7218;51.480;7.006;2023-09-08T05:07:46;6.78;;;6.10;;
14268;SDS011;7218;51.480;7.006;2023-09-08T05:10:13;8.25;;;6.43;;
14268;SDS011;7218;51.480;7.006;2023-09-08T05:12:39;8.73;;;6.78;;
14268;SDS011;7218;51.480;7.006;2023-09-08T05:15:06;8.43;;;6.53;;
14268;SDS011;7218;51.480;7.006;2023-09-08T05:17:39;8.13;;;6.30;;
14268;SDS011;7218;51.480;7.006;2023-09-08T05:20:06;7.63;;;6.25;;
14268;SDS011;7218;51.480;7.006;2023-09-08T05:22:33;8.95;;;6.45;;
14268;SDS011;7218;51.480;7.006;2023-09-08T05:25:02;7.25;;;6.18;;
14268;SDS011;7218;51.480;7.006;2023-09-08T05:27:29;8.77;;;6.38;;
14268;SDS011;7218;51.480;7.006;2023-09-08T05:29:56;7.10;;;5.93;;
14268;SDS011;7218;51.480;7.006;2023-09-08T05:32:23;7.05;;;6.35;;
14268;SDS011;7218;51.480;7.006;2023-09-08T05:34:50;7.53;;;6.10;;
14268;SDS011;7218;51.480;7.006;2023-09-08T05:37:16;9.75;;;6.03;;
14268;SDS011;7218;51.480;7.006;2023-09-08T05:39:43;7.72;;;6.30;;
14268;SDS011;7218;51.480;7.006;2023-09-08T05:42:11;9.35;;;6.50;;
14268;SDS011;7218;51.480;7.006;2023-09-08T05:44:38;11.27;;;6.40;;
14268;SDS011;7218;51.480;7.006;2023-09-08T05:47:05;6.57;;;5.93;;
14268;SDS011;7218;51.480;7.006;2023-09-08T05:49:31;8.15;;;6.60;;
14268;SDS011;7218;51.480;7.006;2023-09-08T05:51:58;15.02;;;6.65;;
14268;SDS011;7218;51.480;7.006;2023-09-08T05:54:24;11.75;;;6.07;;
14268;SDS011;7218;51.480;7.006;2023-09-08T05:56:51;8.40;;;6.28;;
14268;SDS011;7218;51.480;7.006;2023-09-08T05:59:19;9.57;;;6.10;;
14268;SDS011;7218;51.480;7.006;2023-09-08T06:01:45;10.13;;;6.40;;
14268;SDS011;7218;51.480;7.006;2023-09-08T06:04:11;15.90;;;6.68;;
14268;SDS011;7218;51.480;7.006;2023-09-08T06:06:38;9.18;;;6.03;;
14268;SDS011;7218;51.480;7.006;2023-09-08T06:09:04;6.97;;;5.82;;
14268;SDS011;7218;51.480;7.006;2023-09-08T06:11:32;9.32;;;6.35;;
14268;SDS011;7218;51.480;7.006;2023-09-08T06:13:59;9.27;;;6.50;;
14268;SDS011;7218;51.480;7.006;2023-09-08T06:16:27;7.90;;;6.30;;
14268;SDS011;7218;51.480;7.006;2023-09-08T06:18:53;7.60;;;6.20;;
14268;SDS011;7218;51.480;7.006;2023-09-08T06:21:20;7.07;;;6.38;;
14268;SDS011;7218;51.480;7.006;2023-09-08T06:23:46;10.43;;;6.78;;
14268;SDS011;7218;51.480;7.006;2023-09-08T06:26:13;7.82;;;6.65;;
14268;SDS011;7218;51.480;7.006;2023-09-08T06:28:40;7.32;;;6.57;;
14268;SDS011;7218;51.480;7.006;2023-09-08T06:31:08;7.85;;;6.63;;
14268;SDS011;7218;51.480;7.006;2023-09-08T06:33:36;8.77;;;7.00;;
14268;SDS011;7218;51.480;7.006;2023-09-08T06:36:02;10.10;;;6.93;;
14268;SDS011;7218;51.480;7.006;2023-09-08T06:38:29;11.23;;;7.45;;
14268;SDS011;7218;51.480;7.006;2023-09-08T06:40:56;11.05;;;6.57;;
14268;SDS011;7218;51.480;7.006;2023-09-08T06:43:23;9.05;;;6.72;;
14268;SDS011;7218;51.480;7.006;2023-09-08T06:45:49;10.00;;;7.10;;
14268;SDS011;7218;51.480;7.006;2023-09-08T06:48:16;9.57;;;7.03;;
14268;SDS011;7218;51.480;7.006;2023-09-08T06:50:43;9.27;;;6.85;;
14268;SDS011;7218;51.480;7.006;2023-09-08T06:53:10;11.55;;;7.18;;
14268;SDS011;7218;51.480;7.006;2023-09-08T06:55:37;8.88;;;7.20;;
14268;SDS011;7218;51.480;7.006;2023-09-08T06:58:04;11.18;;;7.57;;
14268;SDS011;7218;51.480;7.006;2023-09-08T07:00:30;11.55;;;7.63;;
14268;SDS011;7218;51.480;7.006;2023-09-08T07:02:57;9.32;;;7.30;;
14268;SDS011;7218;51.480;7.006;2023-09-08T07:05:24;12.57;;;7.47;;
14268;SDS011;7218;51.480;7.006;2023-09-08T07:07:51;12.93;;;6.95;;
14268;SDS011;7218;51.480;7.006;2023-09-08T07:10:18;13.27;;;6.80;;
14268;SDS011;7218;51.480;7.006;2023-09-08T07:12:45;10.43;;;6.70;;
14268;SDS011;7218;51.480;7.006;2023-09-08T07:15:13;11.40;;;6.85;;
14268;SDS011;7218;51.480;7.006;2023-09-08T07:17:39;11.57;;;6.65;;
14268;SDS011;7218;51.480;7.006;2023-09-08T07:20:07;11.98;;;6.28;;
14268;SDS011;7218;51.480;7.006;2023-09-08T07:22:34;9.15;;;6.10;;
14268;SDS011;7218;51.480;7.006;2023-09-08T07:25:02;9.38;;;6.13;;
14268;SDS011;7218;51.480;7.006;2023-09-08T07:27:29;14.23;;;6.60;;
14268;SDS011;7218;51.480;7.006;2023-09-08T07:29:55;9.43;;;5.97;;
14268;SDS011;7218;51.480;7.006;2023-09-08T07:32:22;8.18;;;6.10;;
14268;SDS011;7218;51.480;7.006;2023-09-08T07:34:49;9.75;;;6.50;;
14268;SDS011;7218;51.480;7.006;2023-09-08T07:37:19;10.43;;;6.32;;
14268;SDS011;7218;51.480;7.006;2023-09-08T07:39:46;12.00;;;6.32;;
14268;SDS011;7218;51.480;7.006;2023-09-08T07:42:14;12.60;;;6.50;;
14268;SDS011;7218;51.480;7.006;2023-09-08T07:44:41;9.57;;;6.20;;
14268;SDS011;7218;51.480;7.006;2023-09-08T07:47:08;8.32;;;5.75;;
14268;SDS011;7218;51.480;7.006;2023-09-08T07:49:34;8.10;;;5.72;;
14268;SDS011;7218;51.480;7.006;2023-09-08T07:52:00;12.13;;;6.75;;
14268;SDS011;7218;51.480;7.006;2023-09-08T07:54:29;13.07;;;5.70;;
14268;SDS011;7218;51.480;7.006;2023-09-08T07:56:56;11.25;;;6.40;;
14268;SDS011;7218;51.480;7.006;2023-09-08T07:59:23;13.40;;;5.80;;
14268;SDS011;7218;51.480;7.006;2023-09-08T08:01:50;9.30;;;5.68;;
14268;SDS011;7218;51.480;7.006;2023-09-08T08:04:16;12.43;;;6.05;;
14268;SDS011;7218;51.480;7.006;2023-09-08T08:06:43;7.65;;;5.68;;
14268;SDS011;7218;51.480;7.006;2023-09-08T08:09:09;9.80;;;5.70;;
14268;SDS011;7218;51.480;7.006;2023-09-08T08:11:36;11.63;;;5.60;;
14268;SDS011;7218;51.480;7.006;2023-09-08T08:14:03;7.70;;;5.55;;
14268;SDS011;7218;51.480;7.006;2023-09-08T08:16:30;7.05;;;5.25;;
14268;SDS011;7218;51.480;7.006;2023-09-08T08:18:57;8.90;;;5.65;;
14268;SDS011;7218;51.480;7.006;2023-09-08T08:21:24;8.00;;;5.53;;
14268;SDS011;7218;51.480;7.006;2023-09-08T08:23:50;7.28;;;5.30;;
14268;SDS011;7218;51.480;7.006;2023-09-08T08:26:17;7.57;;;5.35;;
14268;SDS011;7218;51.480;7.006;2023-09-08T08:28:44;7.00;;;5.05;;
14268;SDS011;7218;51.480;7.006;2023-09-08T08:31:11;7.78;;;4.70;;
14268;SDS011;7218;51.480;7.006;2023-09-08T08:33:39;8.57;;;5.20;;
14268;SDS011;7218;51.480;7.006;2023-09-08T08:36:06;7.47;;;4.90;;
14268;SDS011;7218;51.480;7.006;2023-09-08T08:38:34;7.07;;;4.97;;
14268;SDS011;7218;51.480;7.006;2023-09-08T08:41:04;7.13;;;4.78;;
14268;SDS011;7218;51.480;7.006;2023-09-08T08:43:31;8.48;;;4.78;;
14268;SDS011;7218;51.480;7.006;2023-09-08T08:45:58;7.22;;;4.70;;
14268;SDS011;7218;51.480;7.006;2023-09-08T08:48:26;6.25;;;4.72;;
14268;SDS011;7218;51.480;7.006;2023-09-08T08:50:56;6.93;;;4.97;;
14268;SDS011;7218;51.480;7.006;2023-09-08T08:53:23;8.25;;;4.50;;
14268;SDS011;7218;51.480;7.006;2023-09-08T08:55:51;6.55;;;4.30;;
14268;SDS011;7218;51.480;7.006;2023-09-08T08:58:20;8.57;;;4.80;;
14268;SDS011;7218;51.480;7.006;2023-09-08T09:00:52;6.18;;;4.63;;
14268;SDS011;7218;51.480;7.006;2023-09-08T09:03:20;9.52;;;4.68;;
14268;SDS011;7218;51.480;7.006;2023-09-08T09:05:49;5.60;;;4.53;;
14268;SDS011;7218;51.480;7.006;2023-09-08T09:08:17;6.93;;;4.70;;
14268;SDS011;7218;51.480;7.006;2023-09-08T09:10:44;8.05;;;4.25;;
14268;SDS011;7218;51.480;7.006;2023-09-08T09:13:10;5.07;;;4.40;;
14268;SDS011;7218;51.480;7.006;2023-09-08T09:15:37;6.60;;;4.18;;
14268;SDS011;7218;51.480;7.006;2023-09-08T09:18:04;5.72;;;4.13;;
14268;SDS011;7218;51.480;7.006;2023-09-08T09:20:31;7.47;;;4.03;;
14268;SDS011;7218;51.480;7.006;2023-09-08T09:22:58;5.45;;;3.60;;
14268;SDS011;7218;51.480;7.006;2023-09-08T09:25:27;4.20;;;3.58;;
14268;SDS011;7218;51.480;7.006;2023-09-08T09:27:55;5.88;;;3.70;;
14268;SDS011;7218;51.480;7.006;2023-09-08T09:30:23;6.72;;;3.97;;
14268;SDS011;7218;51.480;7.006;2023-09-08T09:32:58;4.88;;;3.60;;
14268;SDS011;7218;51.480;7.006;2023-09-08T09:35:40;6.10;;;3.63;;
14268;SDS011;7218;51.480;7.006;2023-09-08T09:38:08;5.40;;;3.65;;
14268;SDS011;7218;51.480;7.006;2023-09-08T09:40:36;4.95;;;3.70;;
14268;SDS011;7218;51.480;7.006;2023-09-08T09:43:04;4.10;;;3.35;;
14268;SDS011;7218;51.480;7.006;2023-09-08T09:45:32;4.43;;;3.58;;
14268;SDS011;7218;51.480;7.006;2023-09-08T09:47:59;4.20;;;3.63;;
14268;SDS011;7218;51.480;7.006;2023-09-08T09:50:27;4.53;;;3.80;;
14268;SDS011;7218;51.480;7.006;2023-09-08T09:52:56;4.65;;;3.40;;
14268;SDS011;7218;51.480;7.006;2023-09-08T09:55:24;7.88;;;3.58;;
14268;SDS011;7218;51.480;7.006;2023-09-08T09:57:52;4.00;;;3.60;;
14268;SDS011;7218;51.480;7.006;2023-09-08T10:00:22;4.35;;;3.95;;
14268;SDS011;7218;51.480;7.006;2023-09-08T10:02:49;3.60;;;3.15;;
14268;SDS011;7218;51.480;7.006;2023-09-08T10:05:16;4.72;;;3.83;;
14268;SDS011;7218;51.480;7.006;2023-09-08T10:07:43;5.38;;;3.80;;
14268;SDS011;7218;51.480;7.006;2023-09-08T10:10:11;4.20;;;3.80;;
14268;SDS011;7218;51.480;7.006;2023-09-08T10:12:38;4.00;;;3.58;;
14268;SDS011;7218;51.480;7.006;2023-09-08T10:15:07;4.65;;;3.80;;
14268;SDS011;7218;51.480;7.006;2023-09-08T10:17:36;6.60;;;4.00;;
14268;SDS011;7218;51.480;7.006;2023-09-08T10:20:04;6.28;;;3.72;;
14268;SDS011;7218;51.480;7.006;2023-09-08T10:22:36;4.75;;;3.65;;
14268;SDS011;7218;51.480;7.006;2023-09-08T10:25:05;4.15;;;3.78;;
14268;SDS011;7218;51.480;7.006;2023-09-08T10:27:33;5.88;;;3.80;;
14268;SDS011;7218;51.480;7.006;2023-09-08T10:30:01;5.95;;;3.70;;
14268;SDS011;7218;51.480;7.006;2023-09-08T10:32:31;3.92;;;3.55;;
14268;SDS011;7218;51.480;7.006;2023-09-08T10:35:00;4.28;;;3.50;;
14268;SDS011;7218;51.480;7.006;2023-09-08T10:37:28;5.70;;;3.72;;
14268;SDS011;7218;51.480;7.006;2023-09-08T10:39:55;4.80;;;3.60;;
14268;SDS011;7218;51.480;7.006;2023-09-08T10:42:22;3.88;;;3.47;;
14268;SDS011;7218;51.480;7.006;2023-09-08T10:45:01;4.38;;;3.60;;
14268;SDS011;7218;51.480;7.006;2023-09-08T10:47:54;5.20;;;3.40;;
14268;SDS011;7218;51.480;7.006;2023-09-08T10:50:26;4.38;;;3.80;;
14268;SDS011;7218;51.480;7.006;2023-09-08T10:53:06;3.83;;;3.53;;
14268;SDS011;7218;51.480;7.006;2023-09-08T10:55:35;4.00;;;3.67;;
14268;SDS011;7218;51.480;7.006;2023-09-08T10:58:03;5.70;;;4.00;;
14268;SDS011;7218;51.480;7.006;2023-09-08T11:00:42;5.90;;;3.70;;
14268;SDS011;7218;51.480;7.006;2023-09-08T11:03:10;5.70;;;3.58;;
14268;SDS011;7218;51.480;7.006;2023-09-08T11:05:37;6.28;;;3.75;;
14268;SDS011;7218;51.480;7.006;2023-09-08T11:08:04;4.57;;;3.38;;
14268;SDS011;7218;51.480;7.006;2023-09-08T11:10:31;5.13;;;3.65;;
14268;SDS011;7218;51.480;7.006;2023-09-08T11:12:59;6.10;;;3.97;;
14268;SDS011;7218;51.480;7.006;2023-09-08T11:15:28;5.03;;;3.90;;
14268;SDS011;7218;51.480;7.006;2023-09-08T11:17:55;5.53;;;3.90;;
14268;SDS011;7218;51.480;7.006;2023-09-08T11:20:27;3.63;;;3.33;;
14268;SDS011;7218;51.480;7.006;2023-09-08T11:22:54;4.07;;;3.67;;
14268;SDS011;7218;51.480;7.006;2023-09-08T11:25:20;3.97;;;3.53;;
14268;SDS011;7218;51.480;7.006;2023-09-08T11:27:47;6.03;;;3.55;;
14268;SDS011;7218;51.480;7.006;2023-09-08T11:30:15;4.95;;;3.45;;
14268;SDS011;7218;51.480;7.006;2023-09-08T11:32:42;5.03;;;3.70;;
14268;SDS011;7218;51.480;7.006;2023-09-08T11:35:09;3.72;;;3.42;;
14268;SDS011;7218;51.480;7.006;2023-09-08T11:37:37;4.45;;;3.45;;
14268;SDS011;7218;51.480;7.006;2023-09-08T11:40:05;3.87;;;3.47;;
14268;SDS011;7218;51.480;7.006;2023-09-08T11:42:37;4.07;;;3.67;;
14268;SDS011;7218;51.480;7.006;2023-09-08T11:45:09;4.53;;;3.50;;
14268;SDS011;7218;51.480;7.006;2023-09-08T11:47:39;5.93;;;3.90;;
14268;SDS011;7218;51.480;7.006;2023-09-08T11:50:06;6.28;;;3.78;;
14268;SDS011;7218;51.480;7.006;2023-09-08T11:52:33;4.32;;;3.60;;
14268;SDS011;7218;51.480;7.006;2023-09-08T11:55:02;4.13;;;3.53;;
14268;SDS011;7218;51.480;7.006;2023-09-08T11:57:28;3.90;;;3.60;;
14268;SDS011;7218;51.480;7.006;2023-09-08T11:59:56;4.00;;;3.60;;
14268;SDS011;7218;51.480;7.006;2023-09-08T12:02:23;4.40;;;3.40;;
14268;SDS011;7218;51.480;7.006;2023-09-08T12:04:50;5.95;;;3.80;;
14268;SDS011;7218;51.480;7.006;2023-09-08T12:07:19;3.60;;;3.30;;
14268;SDS011;7218;51.480;7.006;2023-09-08T12:09:45;3.95;;;3.45;;
14268;SDS011;7218;51.480;7.006;2023-09-08T12:12:13;6.05;;;3.65;;
14268;SDS011;7218;51.480;7.006;2023-09-08T12:14:40;6.47;;;3.40;;
14268;SDS011;7218;51.480;7.006;2023-09-08T12:17:08;4.00;;;3.60;;
14268;SDS011;7218;51.480;7.006;2023-09-08T12:19:34;5.70;;;3.72;;
14268;SDS011;7218;51.480;7.006;2023-09-08T12:22:02;6.35;;;3.90;;
14268;SDS011;7218;51.480;7.006;2023-09-08T12:24:46;4.03;;;3.58;;
14268;SDS011;7218;51.480;7.006;2023-09-08T12:27:15;5.07;;;3.90;;
14268;SDS011;7218;51.480;7.006;2023-09-08T12:29:42;8.05;;;3.97;;
14268;SDS011;7218;51.480;7.006;2023-09-08T12:32:17;3.83;;;3.50;;
14268;SDS011;7218;51.480;7.006;2023-09-08T12:34:44;6.28;;;3.65;;
14268;SDS011;7218;51.480;7.006;2023-09-08T12:37:11;5.38;;;3.58;;
14268;SDS011;7218;51.480;7.006;2023-09-08T12:39:38;6.22;;;3.78;;
14268;SDS011;7218;51.480;7.006;2023-09-08T12:42:05;5.07;;;3.80;;
14268;SDS011;7218;51.480;7.006;2023-09-08T12:44:32;4.07;;;3.55;;
14268;SDS011;7218;51.480;7.006;2023-09-08T12:46:59;4.63;;;3.55;;
14268;SDS011;7218;51.480;7.006;2023-09-08T12:49:25;8.55;;;3.70;;
14268;SDS011;7218;51.480;7.006;2023-09-08T12:51:52;4.95;;;3.60;;
14268;SDS011;7218;51.480;7.006;2023-09-08T12:54:18;5.07;;;3.92;;
14268;SDS011;7218;51.480;7.006;2023-09-08T12:56:45;4.80;;;3.95;;
14268;SDS011;7218;51.480;7.006;2023-09-08T12:59:11;4.20;;;3.80;;
14268;SDS011;7218;51.480;7.006;2023-09-08T13:01:39;5.70;;;3.40;;
14268;SDS011;7218;51.480;7.006;2023-09-08T13:04:06;5.05;;;3.55;;
14268;SDS011;7218;51.480;7.006;2023-09-08T13:06:32;4.10;;;3.60;;
14268;SDS011;7218;51.480;7.006;2023-09-08T13:08:59;4.35;;;3.90;;
14268;SDS011;7218;51.480;7.006;2023-09-08T13:11:26;6.78;;;3.60;;
14268;SDS011;7218;51.480;7.006;2023-09-08T13:13:53;4.35;;;3.58;;
14268;SDS011;7218;51.480;7.006;2023-09-08T13:16:19;5.78;;;3.75;;
14268;SDS011;7218;51.480;7.006;2023-09-08T13:18:47;4.20;;;3.90;;
14268;SDS011;7218;51.480;7.006;2023-09-08T13:21:14;4.13;;;3.72;;
14268;SDS011;7218;51.480;7.006;2023-09-08T13:23:40;4.20;;;3.40;;
14268;SDS011;7218;51.480;7.006;2023-09-08T13:26:07;4.70;;;3.80;;
14268;SDS011;7218;51.480;7.006;2023-09-08T13:28:33;4.40;;;3.63;;
14268;SDS011;7218;51.480;7.006;2023-09-08T13:31:00;6.10;;;3.58;;
14268;SDS011;7218;51.480;7.006;2023-09-08T13:33:26;5.95;;;3.90;;
14268;SDS011;7218;51.480;7.006;2023-09-08T13:35:54;5.38;;;3.90;;
14268;SDS011;7218;51.480;7.006;2023-09-08T13:38:21;4.32;;;3.90;;
14268;SDS011;7218;51.480;7.006;2023-09-08T13:40:47;3.90;;;3.60;;
14268;SDS011;7218;51.480;7.006;2023-09-08T13:43:14;4.55;;;3.88;;
14268;SDS011;7218;51.480;7.006;2023-09-08T13:45:40;5.35;;;3.88;;
14268;SDS011;7218;51.480;7.006;2023-09-08T13:48:07;5.32;;;3.60;;
14268;SDS011;7218;51.480;7.006;2023-09-08T13:50:34;5.60;;;4.05;;
14268;SDS011;7218;51.480;7.006;2023-09-08T13:53:02;4.55;;;3.78;;
14268;SDS011;7218;51.480;7.006;2023-09-08T13:55:28;6.90;;;3.97;;
14268;SDS011;7218;51.480;7.006;2023-09-08T13:57:55;5.00;;;4.00;;
14268;SDS011;7218;51.480;7.006;2023-09-08T14:00:21;4.53;;;3.92;;
14268;SDS011;7218;51.480;7.006;2023-09-08T14:02:48;6.80;;;4.03;;
14268;SDS011;7218;51.480;7.006;2023-09-08T14:05:14;5.97;;;3.92;;
14268;SDS011;7218;51.480;7.006;2023-09-08T14:07:41;4.47;;;4.10;;
14268;SDS011;7218;51.480;7.006;2023-09-08T14:10:09;5.95;;;5.35;;
14268;SDS011;7218;51.480;7.006;2023-09-08T14:12:35;5.18;;;3.90;;
14268;SDS011;7218;51.480;7.006;2023-09-08T14:15:02;5.78;;;3.88;;
14268;SDS011;7218;51.480;7.006;2023-09-08T14:17:29;4.28;;;3.88;;
14268;SDS011;7218;51.480;7.006;2023-09-08T14:19:55;4.38;;;3.90;;
14268;SDS011;7218;51.480;7.006;2023-09-08T14:22:22;4.53;;;4.13;;
14268;SDS011;7218;51.480;7.006;2023-09-08T14:24:48;4.75;;;3.70;;
14268;SDS011;7218;51.480;7.006;2023-09-08T14:27:16;5.25;;;3.58;;
14268;SDS011;7218;51.480;7.006;2023-09-08T14:29:43;4.30;;;3.90;;
14268;SDS011;7218;51.480;7.006;2023-09-08T14:32:09;4.68;;;3.80;;
14268;SDS011;7218;51.480;7.006;2023-09-08T14:34:36;4.43;;;4.00;;
14268;SDS011;7218;51.480;7.006;2023-09-08T14:37:02;6.57;;;4.22;;
14268;SDS011;7218;51.480;7.006;2023-09-08T14:39:29;5.32;;;4.20;;
14268;SDS011;7218;51.480;7.006;2023-09-08T14:41:55;4.10;;;3.72;;
14268;SDS011;7218;51.480;7.006;2023-09-08T14:44:23;5.32;;;3.85;;
14268;SDS011;7218;51.480;7.006;2023-09-08T14:46:50;6.60;;;5.28;;
14268;SDS011;7218;51.480;7.006;2023-09-08T14:49:16;4.75;;;3.97;;
14268;SDS011;7218;51.480;7.006;2023-09-08T14:51:43;5.80;;;3.80;;
14268;SDS011;7218;51.480;7.006;2023-09-08T14:54:09;4.47;;;4.07;;
14268;SDS011;7218;51.480;7.006;2023-09-08T14:56:36;4.60;;;4.00;;
14268;SDS011;7218;51.480;7.006;2023-09-08T14:59:02;5.15;;;3.72;;
14268;SDS011;7218;51.480;7.006;2023-09-08T15:01:30;4.30;;;3.90;;